THY1SD LTAT-LTFM
Flight info
| Callsign | THY1SD |
|---|---|
| Flight time | N/A |
| Altitude | 34000 |
| Route | UREBO UW73 GEM UL614 BAG UL605 YAVRU UA4 ERSEN |
| Aircraft | A321/M-SDE3FGHIRWY/LB1 |
Departure
| Time | N/A |
|---|---|
| Airport | Malatya Erhaç Airport (LTAT) |
Arrival
| Time | 2026-05-03 20:59 |
|---|---|
| Airport | İstanbul Airport (LTFM) |
| Time | Latitude | Longitude | Altitude | Speed | Heading |
|---|---|---|---|---|---|
| 2026-05-03 20:15 | 39.83748 | 33.59287 | 33775 ft | 480 kts | 288° |
| 2026-05-03 20:15 | 39.86209 | 33.51197 | 33775 ft | 481 kts | 288° |
| 2026-05-03 20:16 | 39.88648 | 33.43081 | 33772 ft | 481 kts | 288° |
| 2026-05-03 20:16 | 39.91063 | 33.34960 | 33777 ft | 481 kts | 288° |
| 2026-05-03 20:17 | 39.93454 | 33.26881 | 33775 ft | 481 kts | 288° |
| 2026-05-03 20:17 | 39.95868 | 33.18755 | 33786 ft | 481 kts | 288° |
| 2026-05-03 20:18 | 39.98283 | 33.10616 | 33777 ft | 482 kts | 288° |
| 2026-05-03 20:18 | 40.00692 | 33.02465 | 33761 ft | 482 kts | 288° |
| 2026-05-03 20:19 | 40.03101 | 32.94300 | 33752 ft | 482 kts | 288° |
| 2026-05-03 20:19 | 40.05498 | 32.86124 | 33764 ft | 482 kts | 288° |
| 2026-05-03 20:20 | 40.08450 | 32.78280 | 33756 ft | 485 kts | 303° |
| 2026-05-03 20:20 | 40.12307 | 32.71068 | 33753 ft | 484 kts | 303° |
| 2026-05-03 20:21 | 40.16148 | 32.63822 | 33764 ft | 485 kts | 303° |
| 2026-05-03 20:21 | 40.19955 | 32.56608 | 33762 ft | 485 kts | 303° |
| 2026-05-03 20:22 | 40.23788 | 32.49352 | 33759 ft | 484 kts | 303° |
| 2026-05-03 20:22 | 40.27621 | 32.42085 | 33764 ft | 485 kts | 303° |
| 2026-05-03 20:23 | 40.31448 | 32.34801 | 33761 ft | 486 kts | 303° |
| 2026-05-03 20:23 | 40.35280 | 32.27484 | 33770 ft | 486 kts | 303° |
| 2026-05-03 20:24 | 40.39106 | 32.20162 | 33799 ft | 487 kts | 303° |
| 2026-05-03 20:24 | 40.42934 | 32.12828 | 33793 ft | 488 kts | 303° |
| 2026-05-03 20:25 | 40.46741 | 32.05508 | 33799 ft | 488 kts | 303° |
| 2026-05-03 20:25 | 40.50570 | 31.98114 | 33783 ft | 489 kts | 303° |
| 2026-05-03 20:26 | 40.54398 | 31.90704 | 33819 ft | 489 kts | 302° |
| 2026-05-03 20:26 | 40.58015 | 31.83149 | 33841 ft | 486 kts | 293° |
| 2026-05-03 20:27 | 40.60297 | 31.74903 | 33839 ft | 482 kts | 284° |
| 2026-05-03 20:27 | 40.62364 | 31.66501 | 33862 ft | 481 kts | 285° |
| 2026-05-03 20:28 | 40.64446 | 31.58136 | 33879 ft | 479 kts | 285° |
| 2026-05-03 20:28 | 40.66515 | 31.49783 | 33878 ft | 479 kts | 285° |
| 2026-05-03 20:29 | 40.68557 | 31.41437 | 33896 ft | 478 kts | 285° |
| 2026-05-03 20:29 | 40.70582 | 31.33148 | 33913 ft | 476 kts | 285° |
| 2026-05-03 20:30 | 40.72597 | 31.24852 | 33922 ft | 475 kts | 285° |
| 2026-05-03 20:30 | 40.74594 | 31.16591 | 33623 ft | 469 kts | 284° |
| 2026-05-03 20:30 | 40.75582 | 31.12505 | 33368 ft | 466 kts | 285° |
| 2026-05-03 20:31 | 40.76566 | 31.08443 | 33112 ft | 463 kts | 285° |
| 2026-05-03 20:31 | 40.77543 | 31.04406 | 32844 ft | 461 kts | 285° |
| 2026-05-03 20:31 | 40.78512 | 31.00382 | 32577 ft | 460 kts | 285° |
| 2026-05-03 20:31 | 40.79477 | 30.96364 | 32314 ft | 458 kts | 285° |
| 2026-05-03 20:32 | 40.80114 | 30.93704 | 32138 ft | 458 kts | 285° |
| 2026-05-03 20:32 | 40.81071 | 30.89700 | 31892 ft | 457 kts | 285° |
| 2026-05-03 20:32 | 40.82024 | 30.85705 | 31635 ft | 457 kts | 286° |
| 2026-05-03 20:32 | 40.82978 | 30.81720 | 31301 ft | 454 kts | 286° |
| 2026-05-03 20:33 | 40.83930 | 30.77734 | 30792 ft | 453 kts | 286° |
| 2026-05-03 20:33 | 40.84871 | 30.73772 | 30284 ft | 453 kts | 286° |
| 2026-05-03 20:33 | 40.85855 | 30.69820 | 29769 ft | 453 kts | 292° |
| 2026-05-03 20:33 | 40.87233 | 30.66118 | 29328 ft | 448 kts | 302° |
| 2026-05-03 20:34 | 40.89036 | 30.62785 | 28877 ft | 442 kts | 313° |
| 2026-05-03 20:34 | 40.91037 | 30.59714 | 28436 ft | 439 kts | 313° |
| 2026-05-03 20:34 | 40.93021 | 30.56655 | 28036 ft | 436 kts | 312° |
| 2026-05-03 20:34 | 40.94983 | 30.53611 | 27612 ft | 434 kts | 312° |
| 2026-05-03 20:35 | 40.96932 | 30.50582 | 27203 ft | 432 kts | 312° |
| 2026-05-03 20:35 | 40.98872 | 30.47565 | 26796 ft | 430 kts | 312° |
| 2026-05-03 20:35 | 41.00156 | 30.45578 | 26529 ft | 428 kts | 312° |
| 2026-05-03 20:35 | 41.02748 | 30.41607 | 25995 ft | 425 kts | 313° |
| 2026-05-03 20:36 | 41.04668 | 30.38689 | 25590 ft | 424 kts | 313° |
| 2026-05-03 20:36 | 41.06604 | 30.35743 | 25167 ft | 423 kts | 313° |
| 2026-05-03 20:36 | 41.08533 | 30.32811 | 24744 ft | 421 kts | 313° |
| 2026-05-03 20:36 | 41.10475 | 30.29851 | 23918 ft | 428 kts | 312° |
| 2026-05-03 20:37 | 41.12390 | 30.26917 | 23171 ft | 415 kts | 313° |
| 2026-05-03 20:37 | 41.14251 | 30.24053 | 22276 ft | 405 kts | 313° |
| 2026-05-03 20:37 | 41.16024 | 30.21233 | 21709 ft | 388 kts | 306° |
| 2026-05-03 20:37 | 41.17298 | 30.18203 | 21444 ft | 367 kts | 293° |
| 2026-05-03 20:38 | 41.17992 | 30.15030 | 21015 ft | 352 kts | 279° |
| 2026-05-03 20:38 | 41.18134 | 30.11823 | 20384 ft | 348 kts | 265° |
| 2026-05-03 20:38 | 41.17713 | 30.08672 | 19828 ft | 348 kts | 252° |
| 2026-05-03 20:38 | 41.16954 | 30.05647 | 19713 ft | 346 kts | 251° |
| 2026-05-03 20:39 | 41.16207 | 30.02598 | 19450 ft | 348 kts | 252° |
| 2026-05-03 20:39 | 41.15473 | 29.99545 | 19056 ft | 348 kts | 252° |
| 2026-05-03 20:39 | 41.14736 | 29.96467 | 18231 ft | 362 kts | 253° |
| 2026-05-03 20:39 | 41.13969 | 29.93251 | 17250 ft | 365 kts | 253° |
| 2026-05-03 20:40 | 41.13214 | 29.90111 | 16815 ft | 348 kts | 253° |
| 2026-05-03 20:40 | 41.12490 | 29.87132 | 16407 ft | 333 kts | 253° |
| 2026-05-03 20:40 | 41.11785 | 29.84249 | 16018 ft | 328 kts | 253° |
| 2026-05-03 20:40 | 41.11080 | 29.81364 | 15616 ft | 329 kts | 253° |
| 2026-05-03 20:41 | 41.10379 | 29.78487 | 15225 ft | 329 kts | 253° |
| 2026-05-03 20:41 | 41.09675 | 29.75593 | 14821 ft | 331 kts | 253° |
| 2026-05-03 20:41 | 41.08964 | 29.72689 | 14420 ft | 332 kts | 253° |
| 2026-05-03 20:41 | 41.08251 | 29.69771 | 14023 ft | 332 kts | 253° |
| 2026-05-03 20:42 | 41.07533 | 29.66849 | 13602 ft | 334 kts | 253° |
| 2026-05-03 20:42 | 41.06815 | 29.63925 | 13159 ft | 334 kts | 253° |
| 2026-05-03 20:42 | 41.06098 | 29.61003 | 12770 ft | 333 kts | 254° |
| 2026-05-03 20:42 | 41.05385 | 29.58095 | 12372 ft | 332 kts | 254° |
| 2026-05-03 20:43 | 41.04679 | 29.55217 | 11969 ft | 332 kts | 254° |
| 2026-05-03 20:43 | 41.03966 | 29.52314 | 11569 ft | 331 kts | 255° |
| 2026-05-03 20:43 | 41.03251 | 29.49418 | 11193 ft | 330 kts | 254° |
| 2026-05-03 20:43 | 41.02539 | 29.46562 | 10985 ft | 323 kts | 254° |
| 2026-05-03 20:44 | 41.01839 | 29.43737 | 10628 ft | 322 kts | 255° |
| 2026-05-03 20:44 | 41.01142 | 29.40922 | 10268 ft | 321 kts | 255° |
| 2026-05-03 20:44 | 41.00447 | 29.38118 | 9933 ft | 320 kts | 255° |
| 2026-05-03 20:44 | 40.99756 | 29.35335 | 9495 ft | 317 kts | 255° |
| 2026-05-03 20:45 | 40.99071 | 29.32575 | 8917 ft | 315 kts | 255° |
| 2026-05-03 20:45 | 40.98389 | 29.29839 | 8411 ft | 312 kts | 255° |
| 2026-05-03 20:45 | 40.97710 | 29.27117 | 7996 ft | 312 kts | 255° |
| 2026-05-03 20:45 | 40.97031 | 29.24396 | 7605 ft | 311 kts | 255° |
| 2026-05-03 20:46 | 40.96355 | 29.21703 | 7339 ft | 307 kts | 255° |
| 2026-05-03 20:46 | 40.95680 | 29.19013 | 6995 ft | 305 kts | 255° |
| 2026-05-03 20:46 | 40.95008 | 29.16332 | 6600 ft | 307 kts | 255° |
| 2026-05-03 20:46 | 40.94340 | 29.13680 | 6310 ft | 303 kts | 256° |
| 2026-05-03 20:47 | 40.93941 | 29.11016 | 6145 ft | 290 kts | 275° |
| 2026-05-03 20:47 | 40.94190 | 29.08451 | 6025 ft | 283 kts | 288° |
| 2026-05-03 20:47 | 40.94596 | 29.05913 | 5904 ft | 282 kts | 289° |
| 2026-05-03 20:47 | 40.95002 | 29.03406 | 5769 ft | 274 kts | 289° |
| 2026-05-03 20:48 | 40.95393 | 29.00979 | 5639 ft | 265 kts | 289° |
| 2026-05-03 20:48 | 40.95771 | 28.98626 | 5427 ft | 259 kts | 290° |
| 2026-05-03 20:48 | 40.96139 | 28.96333 | 5313 ft | 249 kts | 290° |
| 2026-05-03 20:48 | 40.96492 | 28.94128 | 5239 ft | 242 kts | 290° |
| 2026-05-03 20:49 | 40.96843 | 28.91962 | 5182 ft | 240 kts | 290° |
| 2026-05-03 20:49 | 40.97193 | 28.89805 | 5044 ft | 239 kts | 289° |
| 2026-05-03 20:49 | 40.97541 | 28.87656 | 4733 ft | 237 kts | 290° |
| 2026-05-03 20:49 | 40.97880 | 28.85554 | 4411 ft | 236 kts | 290° |
| 2026-05-03 20:50 | 40.98219 | 28.83444 | 4077 ft | 233 kts | 290° |
| 2026-05-03 20:50 | 40.98542 | 28.81390 | 3849 ft | 221 kts | 290° |
| 2026-05-03 20:50 | 40.98852 | 28.79421 | 3710 ft | 217 kts | 291° |
| 2026-05-03 20:50 | 40.99165 | 28.77468 | 3579 ft | 216 kts | 291° |
| 2026-05-03 20:51 | 40.99479 | 28.75525 | 3458 ft | 215 kts | 292° |
| 2026-05-03 20:51 | 41.00030 | 28.73759 | 3321 ft | 200 kts | 312° |
| 2026-05-03 20:51 | 41.00869 | 28.72471 | 3223 ft | 172 kts | 329° |
| 2026-05-03 20:51 | 41.01816 | 28.71664 | 3088 ft | 163 kts | 344° |
| 2026-05-03 20:52 | 41.02958 | 28.71239 | 3015 ft | 174 kts | 358° |
| 2026-05-03 20:52 | 41.04168 | 28.71182 | 2984 ft | 174 kts | 3° |
| 2026-05-03 20:52 | 41.05384 | 28.71158 | 2980 ft | 175 kts | 3° |
| 2026-05-03 20:52 | 41.06601 | 28.71134 | 2981 ft | 175 kts | 3° |
| 2026-05-03 20:53 | 41.07809 | 28.71109 | 2989 ft | 169 kts | 4° |
| 2026-05-03 20:53 | 41.08884 | 28.71084 | 2980 ft | 146 kts | 4° |
| 2026-05-03 20:53 | 41.09852 | 28.71065 | 2973 ft | 134 kts | 5° |
| 2026-05-03 20:53 | 41.10763 | 28.71048 | 2980 ft | 130 kts | 5° |
| 2026-05-03 20:54 | 41.11657 | 28.71032 | 2978 ft | 127 kts | 5° |
| 2026-05-03 20:54 | 41.13413 | 28.70999 | 2899 ft | 127 kts | 5° |
| 2026-05-03 20:54 | 41.14290 | 28.70982 | 2763 ft | 125 kts | 4° |
| 2026-05-03 20:55 | 41.15163 | 28.70965 | 2610 ft | 125 kts | 4° |
| 2026-05-03 20:55 | 41.16034 | 28.70948 | 2468 ft | 124 kts | 4° |
| 2026-05-03 20:55 | 41.16896 | 28.70931 | 2286 ft | 124 kts | 3° |
| 2026-05-03 20:55 | 41.17754 | 28.70914 | 2120 ft | 123 kts | 2° |
| 2026-05-03 20:56 | 41.18608 | 28.70897 | 1943 ft | 122 kts | 2° |
| 2026-05-03 20:56 | 41.19445 | 28.70881 | 1773 ft | 122 kts | 2° |
| 2026-05-03 20:56 | 41.20301 | 28.70864 | 1605 ft | 124 kts | 2° |
| 2026-05-03 20:56 | 41.21163 | 28.70847 | 1430 ft | 124 kts | 2° |
| 2026-05-03 20:57 | 41.22021 | 28.70830 | 1249 ft | 123 kts | 1° |
| 2026-05-03 20:57 | 41.22875 | 28.70813 | 1093 ft | 122 kts | 1° |
| 2026-05-03 20:57 | 41.23726 | 28.70804 | 888 ft | 121 kts | 2° |
| 2026-05-03 20:57 | 41.24571 | 28.70783 | 744 ft | 122 kts | 1° |
| 2026-05-03 20:58 | 41.25410 | 28.70757 | 652 ft | 121 kts | 2° |
| 2026-05-03 20:58 | 41.26247 | 28.70738 | 446 ft | 119 kts | 3° |
| 2026-05-03 20:58 | 41.27070 | 28.70724 | 359 ft | 112 kts | 2° |
| 2026-05-03 20:58 | 41.27732 | 28.70715 | 330 ft | 75 kts | 359° |
| 2026-05-03 20:59 | 41.28127 | 28.70702 | 333 ft | 48 kts | 359° |
| 2026-05-03 20:59 | 41.28423 | 28.70693 | 330 ft | 35 kts | 360° |
| 2026-05-03 20:59 | 41.28551 | 28.70736 | 332 ft | 24 kts | 24° |
| 2026-05-03 20:59 | 41.28682 | 28.70827 | 334 ft | 4 kts | 29° |
| 2026-05-03 21:00 | 41.28692 | 28.70835 | 334 ft | 0 kts | 29° |
| 2026-05-03 21:01 | 41.28698 | 28.70839 | 334 ft | 5 kts | 29° |
| 2026-05-03 21:01 | 41.28760 | 28.70884 | 331 ft | 15 kts | 29° |
| 2026-05-03 21:01 | 41.28882 | 28.70975 | 330 ft | 25 kts | 29° |
| 2026-05-03 21:01 | 41.29026 | 28.71081 | 332 ft | 22 kts | 29° |
| 2026-05-03 21:02 | 41.29169 | 28.71153 | 330 ft | 22 kts | 7° |
| 2026-05-03 21:02 | 41.29332 | 28.71151 | 330 ft | 25 kts | 359° |
| 2026-05-03 21:02 | 41.29455 | 28.71164 | 333 ft | 13 kts | 38° |
| 2026-05-03 21:02 | 41.29470 | 28.71263 | 334 ft | 10 kts | 89° |
| 2026-05-03 21:03 | 41.29471 | 28.71344 | 334 ft | 8 kts | 89° |
| 2026-05-03 21:03 | 41.29472 | 28.71408 | 334 ft | 6 kts | 90° |
| 2026-05-03 21:03 | 41.29473 | 28.71456 | 334 ft | 5 kts | 87° |
| 2026-05-03 21:03 | 41.29475 | 28.71511 | 333 ft | 7 kts | 87° |
| 2026-05-03 21:04 | 41.29476 | 28.71579 | 332 ft | 8 kts | 91° |
| 2026-05-03 21:04 | 41.29447 | 28.71622 | 331 ft | 6 kts | 167° |
| 2026-05-03 21:04 | 41.29411 | 28.71620 | 333 ft | 5 kts | 184° |
| 2026-05-03 21:04 | 41.29380 | 28.71620 | 332 ft | 3 kts | 178° |
| 2026-05-03 21:05 | 41.29377 | 28.71620 | 330 ft | 0 kts | 178° |